createdAt,value
2023-05-09T00:01:31.278Z,7.99
2023-05-09T00:03:59.245Z,7.96
2023-05-09T00:06:27.552Z,7.93
2023-05-09T00:08:56.904Z,7.92
2023-05-09T00:11:23.673Z,7.92
2023-05-09T00:13:51.983Z,7.89
2023-05-09T00:16:20.637Z,7.86
2023-05-09T00:18:47.430Z,7.95
2023-05-09T00:21:14.091Z,8.06
2023-05-09T00:23:41.017Z,8.17
2023-05-09T00:26:07.886Z,8.12
2023-05-09T00:28:34.986Z,8.19
2023-05-09T00:31:01.612Z,8.14
2023-05-09T00:33:28.220Z,8.14
2023-05-09T00:35:55.257Z,8.08
2023-05-09T00:38:23.682Z,8.09
2023-05-09T00:40:50.300Z,8.16
2023-05-09T00:43:17.510Z,8.16
2023-05-09T00:45:45.287Z,8.13
2023-05-09T00:48:11.966Z,8.15
2023-05-09T00:50:38.595Z,8.13
2023-05-09T00:53:05.479Z,8.08
2023-05-09T00:55:32.357Z,8.19
2023-05-09T00:57:59.074Z,8.16
2023-05-09T01:00:25.908Z,8.17
2023-05-09T01:02:55.159Z,8.15
2023-05-09T01:05:27.291Z,8.14
2023-05-09T01:08:44.740Z,8.08
2023-05-09T01:11:33.393Z,8.02
2023-05-09T01:14:06.668Z,7.97
2023-05-09T01:16:52.211Z,7.99
2023-05-09T01:19:48.300Z,8.06
2023-05-09T01:22:16.486Z,8.00
2023-05-09T01:25:07.818Z,7.98
2023-05-09T01:28:02.328Z,7.98
2023-05-09T01:30:29.722Z,7.90
2023-05-09T01:33:00.881Z,7.87
2023-05-09T01:35:31.118Z,7.86
2023-05-09T01:37:59.331Z,7.92
2023-05-09T01:40:33.622Z,7.88
2023-05-09T01:43:03.792Z,7.84
2023-05-09T01:45:31.464Z,7.88
2023-05-09T01:47:59.095Z,7.83
2023-05-09T01:50:27.207Z,7.80
2023-05-09T01:52:56.695Z,7.74
2023-05-09T01:55:27.329Z,7.73
2023-05-09T01:57:54.269Z,7.65
2023-05-09T02:00:23.767Z,7.60
2023-05-09T02:02:52.136Z,7.64
2023-05-09T02:05:19.393Z,7.60
2023-05-09T02:07:47.558Z,7.59
2023-05-09T02:10:16.024Z,7.59
2023-05-09T02:12:43.693Z,7.53
2023-05-09T02:15:10.691Z,7.57
2023-05-09T02:17:40.666Z,7.54
2023-05-09T02:20:09.889Z,7.50
2023-05-09T02:22:37.131Z,7.40
2023-05-09T02:25:05.199Z,7.39
2023-05-09T02:27:34.910Z,7.39
2023-05-09T02:30:04.400Z,7.40
2023-05-09T02:32:33.205Z,7.35
2023-05-09T02:35:02.259Z,7.30
2023-05-09T02:37:29.332Z,7.31
2023-05-09T02:39:56.423Z,7.28
2023-05-09T02:42:28.707Z,7.25
2023-05-09T02:44:56.141Z,7.31
2023-05-09T02:47:22.835Z,7.28
2023-05-09T02:49:49.449Z,7.14
2023-05-09T02:52:16.240Z,7.11
2023-05-09T02:54:42.909Z,7.10
2023-05-09T02:57:09.603Z,7.11
2023-05-09T02:59:36.482Z,7.11
2023-05-09T03:02:03.212Z,7.04
2023-05-09T03:04:30.566Z,7.04
2023-05-09T03:06:57.226Z,6.97
2023-05-09T03:09:26.670Z,6.95
2023-05-09T03:11:53.293Z,7.01
2023-05-09T03:14:20.246Z,6.99
2023-05-09T03:16:46.828Z,6.94
2023-05-09T03:19:21.818Z,6.94
2023-05-09T03:21:48.722Z,6.95
2023-05-09T03:24:15.821Z,6.93
2023-05-09T03:26:43.014Z,6.95
2023-05-09T03:29:09.628Z,7.00
2023-05-09T03:31:38.186Z,6.98
2023-05-09T03:34:04.982Z,7.03
2023-05-09T03:36:32.301Z,7.03
2023-05-09T03:38:59.942Z,6.97
2023-05-09T03:41:26.763Z,6.96
2023-05-09T03:43:53.416Z,6.88
2023-05-09T03:46:20.050Z,6.82
2023-05-09T03:48:48.245Z,6.86
2023-05-09T03:51:15.226Z,6.87
2023-05-09T03:53:46.286Z,6.91
2023-05-09T03:56:14.526Z,6.91
2023-05-09T03:58:46.602Z,6.89
2023-05-09T04:01:14.247Z,6.96
2023-05-09T04:03:41.634Z,7.05
2023-05-09T04:06:09.034Z,7.06
2023-05-09T04:08:40.117Z,7.13
2023-05-09T04:11:07.337Z,7.16
2023-05-09T04:13:35.351Z,7.12
2023-05-09T04:16:07.164Z,7.17
2023-05-09T04:18:34.523Z,7.25
2023-05-09T04:21:01.223Z,7.18
2023-05-09T04:23:28.286Z,7.23
2023-05-09T04:25:57.798Z,7.25
2023-05-09T04:28:25.031Z,7.34
2023-05-09T04:30:52.217Z,7.40
2023-05-09T04:33:19.944Z,7.43
2023-05-09T04:35:46.709Z,7.45
2023-05-09T04:38:13.406Z,7.49
2023-05-09T04:40:40.337Z,7.55
2023-05-09T04:43:07.266Z,7.60
2023-05-09T04:45:33.864Z,7.63
2023-05-09T04:48:01.518Z,7.67
2023-05-09T04:50:29.426Z,7.75
2023-05-09T04:52:55.979Z,7.84
2023-05-09T04:55:22.854Z,7.89
2023-05-09T04:57:50.716Z,8.01
2023-05-09T05:00:18.574Z,8.09
2023-05-09T05:02:47.526Z,8.14
2023-05-09T05:05:14.297Z,8.14
2023-05-09T05:07:42.952Z,8.20
2023-05-09T05:10:12.056Z,8.25
2023-05-09T05:12:41.128Z,8.27
2023-05-09T05:15:11.073Z,8.34
2023-05-09T05:17:38.585Z,8.41
2023-05-09T05:20:08.342Z,8.40
2023-05-09T05:22:35.911Z,8.38
2023-05-09T05:25:04.490Z,8.49
2023-05-09T05:27:32.285Z,8.56
2023-05-09T05:29:59.995Z,8.63
2023-05-09T05:32:26.729Z,8.63
2023-05-09T05:34:54.077Z,8.63
2023-05-09T05:37:20.808Z,8.68
2023-05-09T05:39:47.597Z,8.73
2023-05-09T05:42:14.640Z,8.79
2023-05-09T05:44:41.409Z,8.87
2023-05-09T05:47:08.173Z,8.90
2023-05-09T05:49:34.813Z,8.98
2023-05-09T05:52:01.427Z,9.02
2023-05-09T05:54:27.994Z,9.07
2023-05-09T05:56:54.637Z,9.07
2023-05-09T05:59:21.716Z,9.06
2023-05-09T06:01:48.710Z,9.18
2023-05-09T06:04:15.536Z,9.23
2023-05-09T06:06:42.380Z,9.25
2023-05-09T06:09:09.045Z,9.38
2023-05-09T06:11:35.690Z,9.45
2023-05-09T06:14:03.594Z,9.56
2023-05-09T06:16:30.367Z,9.63
2023-05-09T06:18:57.096Z,9.64
2023-05-09T06:21:23.732Z,9.71
2023-05-09T06:24:01.981Z,9.70
2023-05-09T06:26:33.452Z,9.78
2023-05-09T06:29:00.064Z,9.82
2023-05-09T06:31:26.937Z,9.93
2023-05-09T06:33:53.533Z,10.03
2023-05-09T06:36:20.312Z,10.04
2023-05-09T06:38:46.968Z,10.15
2023-05-09T06:41:13.586Z,10.26
2023-05-09T06:43:41.351Z,10.34
2023-05-09T06:46:08.128Z,10.49
2023-05-09T06:48:35.784Z,10.57
2023-05-09T06:51:02.548Z,10.71
2023-05-09T06:53:29.120Z,10.79
2023-05-09T06:55:55.787Z,10.93
2023-05-09T06:58:23.185Z,10.91
2023-05-09T07:00:50.019Z,10.94
2023-05-09T07:03:16.692Z,10.87
2023-05-09T07:05:43.250Z,10.87
2023-05-09T07:08:10.936Z,10.86
2023-05-09T07:10:38.775Z,10.90
2023-05-09T07:13:05.824Z,10.93
2023-05-09T07:15:40.341Z,10.97
2023-05-09T07:18:07.836Z,10.96
2023-05-09T07:20:34.648Z,11.07
2023-05-09T07:23:04.178Z,11.18
2023-05-09T07:25:30.885Z,11.32
2023-05-09T07:27:57.828Z,11.36
2023-05-09T07:30:25.253Z,11.46
2023-05-09T07:32:52.305Z,11.64
2023-05-09T07:35:19.817Z,11.77
2023-05-09T07:37:46.795Z,11.84
2023-05-09T07:40:13.999Z,11.90
2023-05-09T07:42:41.075Z,11.92
2023-05-09T07:45:08.090Z,12.03
2023-05-09T07:47:34.827Z,12.04
2023-05-09T07:50:01.764Z,12.04
2023-05-09T07:52:28.440Z,12.17
2023-05-09T07:54:55.976Z,12.16
2023-05-09T07:57:23.157Z,12.17
2023-05-09T07:59:49.848Z,12.10
2023-05-09T08:02:16.610Z,12.18
2023-05-09T08:04:44.018Z,12.30
2023-05-09T08:07:11.781Z,12.43
2023-05-09T08:09:38.566Z,12.51
2023-05-09T08:12:07.217Z,12.58
2023-05-09T08:14:33.838Z,12.71
2023-05-09T08:17:00.447Z,12.79
2023-05-09T08:19:27.045Z,13.03
2023-05-09T08:21:53.887Z,13.20
2023-05-09T08:24:20.559Z,13.37
2023-05-09T08:26:47.554Z,13.36
2023-05-09T08:29:14.787Z,13.21
2023-05-09T08:31:41.878Z,13.24
2023-05-09T08:34:08.662Z,13.27
2023-05-09T08:36:35.361Z,13.52
2023-05-09T08:39:02.345Z,13.78
2023-05-09T08:41:33.250Z,13.98
2023-05-09T08:43:59.991Z,14.20
2023-05-09T08:46:33.937Z,14.43
2023-05-09T08:49:01.371Z,14.69
2023-05-09T08:51:30.097Z,14.82
2023-05-09T08:53:57.205Z,15.00
2023-05-09T08:56:24.481Z,15.28
2023-05-09T08:58:51.751Z,15.30
2023-05-09T09:01:19.485Z,15.42
2023-05-09T09:03:49.452Z,15.43
2023-05-09T09:06:17.054Z,15.82
2023-05-09T09:08:44.646Z,15.97
2023-05-09T09:11:13.753Z,16.18
2023-05-09T09:13:41.788Z,16.55
2023-05-09T09:16:19.430Z,16.68
2023-05-09T09:18:46.543Z,16.98
2023-05-09T09:21:16.667Z,17.22
2023-05-09T09:23:44.471Z,17.73
2023-05-09T09:26:12.019Z,18.33
2023-05-09T09:28:38.726Z,19.69
2023-05-09T09:31:26.190Z,21.62
2023-05-09T09:34:03.885Z,22.40
2023-05-09T09:36:32.384Z,23.45
2023-05-09T09:39:00.620Z,23.83
2023-05-09T09:41:35.939Z,24.22
2023-05-09T09:44:10.456Z,22.55
2023-05-09T09:46:49.069Z,22.44
2023-05-09T09:49:22.854Z,23.62
2023-05-09T09:51:56.643Z,23.68
2023-05-09T09:54:26.847Z,24.26
2023-05-09T09:56:54.763Z,25.56
2023-05-09T09:59:24.913Z,24.71
2023-05-09T10:01:58.904Z,25.25
2023-05-09T10:04:28.445Z,25.99
2023-05-09T10:06:57.073Z,25.11
2023-05-09T10:09:28.066Z,25.42
2023-05-09T10:11:56.310Z,25.68
2023-05-09T10:14:26.261Z,25.87
2023-05-09T10:16:56.730Z,27.12
2023-05-09T10:19:27.176Z,26.82
2023-05-09T10:21:54.900Z,26.01
2023-05-09T10:24:28.053Z,24.91
2023-05-09T10:27:04.134Z,25.36
2023-05-09T10:29:35.304Z,26.47
2023-05-09T10:32:10.772Z,27.20
2023-05-09T10:34:42.165Z,26.53
2023-05-09T10:37:09.363Z,27.43
2023-05-09T10:39:37.215Z,27.61
2023-05-09T10:42:05.456Z,26.51
2023-05-09T10:44:33.201Z,26.92
2023-05-09T10:47:01.859Z,27.85
2023-05-09T10:49:29.750Z,27.79
2023-05-09T10:51:56.371Z,28.32
2023-05-09T10:54:30.688Z,27.82
2023-05-09T10:56:57.955Z,28.48
2023-05-09T10:59:34.551Z,28.53
2023-05-09T11:02:03.329Z,28.50
2023-05-09T11:04:31.532Z,28.23
2023-05-09T11:07:00.107Z,28.16
2023-05-09T11:09:37.799Z,28.44
2023-05-09T11:12:08.409Z,28.22
2023-05-09T11:14:47.027Z,28.34
2023-05-09T11:17:23.093Z,28.46
2023-05-09T11:19:58.145Z,28.19
2023-05-09T11:22:46.690Z,27.44
2023-05-09T11:25:15.422Z,27.62
2023-05-09T11:27:52.391Z,28.00
2023-05-09T11:30:20.585Z,27.63
2023-05-09T11:32:55.111Z,27.78
2023-05-09T11:35:23.646Z,27.45
2023-05-09T11:38:09.440Z,27.58
2023-05-09T11:40:36.154Z,27.92
2023-05-09T11:43:02.885Z,27.80
2023-05-09T11:45:31.528Z,28.44
2023-05-09T11:47:59.162Z,27.98
2023-05-09T11:50:25.836Z,27.83
2023-05-09T11:52:53.627Z,28.16
2023-05-09T11:55:25.649Z,28.49
2023-05-09T11:57:53.686Z,28.30
2023-05-09T12:00:25.982Z,28.82
2023-05-09T12:02:53.397Z,29.14
2023-05-09T12:05:22.747Z,28.53
2023-05-09T12:07:49.989Z,29.15
2023-05-09T12:10:19.996Z,29.01
2023-05-09T12:12:49.380Z,29.06
2023-05-09T12:15:17.055Z,28.92
2023-05-09T12:17:46.794Z,28.72
2023-05-09T12:20:14.445Z,28.49
2023-05-09T12:22:43.533Z,27.94
2023-05-09T12:25:11.918Z,27.38
2023-05-09T12:27:40.317Z,28.02
2023-05-09T12:30:10.272Z,28.36
2023-05-09T12:32:40.354Z,28.24
2023-05-09T12:35:09.508Z,29.04
2023-05-09T12:37:36.316Z,28.37
2023-05-09T12:40:15.431Z,27.63
2023-05-09T12:42:46.289Z,28.07
2023-05-09T12:45:14.002Z,28.54
2023-05-09T12:47:45.541Z,28.77
2023-05-09T12:50:13.190Z,28.58
2023-05-09T12:52:54.560Z,28.84
2023-05-09T12:55:29.492Z,29.15
2023-05-09T12:58:01.885Z,28.86
2023-05-09T13:00:29.262Z,29.07
2023-05-09T13:02:56.075Z,28.50
2023-05-09T13:05:23.637Z,28.96
2023-05-09T13:07:54.707Z,28.55
2023-05-09T13:10:27.419Z,28.34
2023-05-09T13:12:54.702Z,29.12
2023-05-09T13:15:23.128Z,29.32
2023-05-09T13:17:51.740Z,29.32
2023-05-09T13:20:19.448Z,29.08
2023-05-09T13:22:46.684Z,29.46
2023-05-09T13:25:13.740Z,29.88
2023-05-09T13:27:40.635Z,29.45
2023-05-09T13:30:08.545Z,29.74
2023-05-09T13:32:36.567Z,29.87
2023-05-09T13:35:06.525Z,29.85
2023-05-09T13:37:36.459Z,29.64
2023-05-09T13:40:04.230Z,28.92
2023-05-09T13:42:31.399Z,29.63
2023-05-09T13:44:58.882Z,29.51
2023-05-09T13:47:25.958Z,28.48
2023-05-09T13:49:52.924Z,28.60
2023-05-09T13:52:20.023Z,28.53
2023-05-09T13:54:47.190Z,29.00
2023-05-09T13:57:13.867Z,29.28
2023-05-09T13:59:43.489Z,29.44
2023-05-09T14:02:11.059Z,28.99
2023-05-09T14:04:39.158Z,28.09
2023-05-09T14:07:05.876Z,27.99
2023-05-09T14:09:39.899Z,28.20
2023-05-09T14:12:09.180Z,27.80
2023-05-09T14:14:36.020Z,27.02
2023-05-09T14:17:02.804Z,26.91
2023-05-09T14:19:30.234Z,26.47
2023-05-09T14:21:57.035Z,26.34
2023-05-09T14:24:23.633Z,25.75
2023-05-09T14:26:50.650Z,24.67
2023-05-09T14:29:17.390Z,23.60
2023-05-09T14:31:44.119Z,22.73
2023-05-09T14:34:11.512Z,22.33
2023-05-09T14:36:38.122Z,22.25
2023-05-09T14:39:06.134Z,21.66
2023-05-09T14:41:32.829Z,21.30
2023-05-09T14:43:59.578Z,21.16
2023-05-09T14:46:26.274Z,21.06
2023-05-09T14:48:53.148Z,20.68
2023-05-09T14:51:20.004Z,20.56
2023-05-09T14:53:47.438Z,20.06
2023-05-09T14:56:14.330Z,19.78
2023-05-09T14:58:41.032Z,19.78
2023-05-09T15:01:07.669Z,19.79
2023-05-09T15:03:34.520Z,19.71
2023-05-09T15:06:01.714Z,19.66
2023-05-09T15:08:28.508Z,19.64
2023-05-09T15:10:55.190Z,19.55
2023-05-09T15:13:22.073Z,19.43
2023-05-09T15:15:49.214Z,19.58
2023-05-09T15:18:17.063Z,19.64
2023-05-09T15:20:44.435Z,19.70
2023-05-09T15:23:13.047Z,19.67
2023-05-09T15:25:43.297Z,19.54
2023-05-09T15:28:10.157Z,19.43
2023-05-09T15:30:38.864Z,19.32
2023-05-09T15:33:05.740Z,19.32
2023-05-09T15:35:32.773Z,19.20
2023-05-09T15:37:59.932Z,19.09
2023-05-09T15:40:28.151Z,19.01
2023-05-09T15:42:54.873Z,18.90
2023-05-09T15:45:21.509Z,18.98
2023-05-09T15:47:48.297Z,18.95
2023-05-09T15:50:15.201Z,18.82
2023-05-09T15:52:42.074Z,18.64
2023-05-09T15:55:09.639Z,18.59
2023-05-09T15:57:36.309Z,18.59
2023-05-09T16:00:03.332Z,18.56
2023-05-09T16:02:39.257Z,18.61
2023-05-09T16:05:08.129Z,18.69
2023-05-09T16:07:35.971Z,18.78
2023-05-09T16:10:02.971Z,18.90
2023-05-09T16:12:32.723Z,18.95
2023-05-09T16:14:59.583Z,18.84
2023-05-09T16:17:26.264Z,18.84
2023-05-09T16:19:52.971Z,18.72
2023-05-09T16:22:19.583Z,18.61
2023-05-09T16:24:47.583Z,18.58
2023-05-09T16:27:14.522Z,18.60
2023-05-09T16:29:41.569Z,18.50
2023-05-09T16:32:08.802Z,18.46
2023-05-09T16:34:36.342Z,18.49
2023-05-09T16:37:03.818Z,18.50
2023-05-09T16:39:30.676Z,18.47
2023-05-09T16:41:58.126Z,18.41
2023-05-09T16:44:25.843Z,18.31
2023-05-09T16:46:53.714Z,18.21
2023-05-09T16:49:21.195Z,18.15
2023-05-09T16:51:47.950Z,18.06
2023-05-09T16:54:14.690Z,18.02
2023-05-09T16:56:42.199Z,17.94
2023-05-09T16:59:08.775Z,17.92
2023-05-09T17:01:35.553Z,17.87
2023-05-09T17:04:02.505Z,17.77
2023-05-09T17:06:29.295Z,17.66
2023-05-09T17:08:55.952Z,17.55
2023-05-09T17:11:22.862Z,17.44
2023-05-09T17:13:49.562Z,17.48
2023-05-09T17:16:17.085Z,17.49
2023-05-09T17:18:47.322Z,17.39
2023-05-09T17:21:15.373Z,17.29
2023-05-09T17:23:42.185Z,17.27
2023-05-09T17:26:09.570Z,17.24
2023-05-09T17:28:36.876Z,17.15
2023-05-09T17:31:03.551Z,17.04
2023-05-09T17:33:30.295Z,16.96
2023-05-09T17:35:57.334Z,16.90
2023-05-09T17:38:24.629Z,16.87
2023-05-09T17:40:51.296Z,16.81
2023-05-09T17:43:18.280Z,16.72
2023-05-09T17:45:46.299Z,16.65
2023-05-09T17:48:13.538Z,16.58
2023-05-09T17:50:40.119Z,16.52
2023-05-09T17:53:08.804Z,16.50
2023-05-09T17:55:35.773Z,16.42
2023-05-09T17:58:02.449Z,16.40
2023-05-09T18:00:29.321Z,16.33
2023-05-09T18:03:01.506Z,16.27
2023-05-09T18:05:28.273Z,16.22
2023-05-09T18:07:54.986Z,16.13
2023-05-09T18:10:22.457Z,16.08
2023-05-09T18:12:49.119Z,15.96
2023-05-09T18:15:15.720Z,15.84
2023-05-09T18:17:42.480Z,15.74
2023-05-09T18:20:09.447Z,15.68
2023-05-09T18:22:37.386Z,15.70
2023-05-09T18:25:04.401Z,15.64
2023-05-09T18:27:31.119Z,15.63
2023-05-09T18:29:57.646Z,15.61
2023-05-09T18:32:24.904Z,15.57
2023-05-09T18:34:51.672Z,15.51
2023-05-09T18:37:18.690Z,15.35
2023-05-09T18:39:45.970Z,15.30
2023-05-09T18:42:15.312Z,15.18
2023-05-09T18:44:42.915Z,15.18
2023-05-09T18:47:09.633Z,15.12
2023-05-09T18:49:36.317Z,15.00
2023-05-09T18:52:04.510Z,14.99
2023-05-09T18:54:31.173Z,14.92
2023-05-09T18:56:57.994Z,14.85
2023-05-09T18:59:25.618Z,14.82
2023-05-09T19:01:52.348Z,14.79
2023-05-09T19:04:19.756Z,14.73
2023-05-09T19:06:46.862Z,14.65
2023-05-09T19:09:13.501Z,14.71
2023-05-09T19:11:40.157Z,14.66
2023-05-09T19:14:07.111Z,14.58
2023-05-09T19:16:34.096Z,14.52
2023-05-09T19:19:01.877Z,14.46
2023-05-09T19:21:29.000Z,14.49
2023-05-09T19:23:56.282Z,14.51
2023-05-09T19:26:25.920Z,14.51
2023-05-09T19:28:52.651Z,14.49
2023-05-09T19:31:20.463Z,14.49
2023-05-09T19:33:50.130Z,14.35
2023-05-09T19:36:17.965Z,14.26
2023-05-09T19:38:45.456Z,14.21
2023-05-09T19:41:13.845Z,14.24
2023-05-09T19:43:41.008Z,14.22
2023-05-09T19:46:07.933Z,14.24
2023-05-09T19:48:35.873Z,14.27
2023-05-09T19:51:02.629Z,14.21
2023-05-09T19:53:29.235Z,14.18
2023-05-09T19:55:56.046Z,14.20
2023-05-09T19:58:22.707Z,14.16
2023-05-09T20:00:49.399Z,14.16
2023-05-09T20:03:16.173Z,14.18
2023-05-09T20:05:42.964Z,14.12
2023-05-09T20:08:09.700Z,14.11
2023-05-09T20:10:36.532Z,14.14
2023-05-09T20:13:04.384Z,14.16
2023-05-09T20:15:31.389Z,14.16
2023-05-09T20:17:58.480Z,14.13
2023-05-09T20:20:25.283Z,14.11
2023-05-09T20:22:52.310Z,14.04
2023-05-09T20:25:21.728Z,13.98
2023-05-09T20:27:48.387Z,14.00
2023-05-09T20:30:16.053Z,13.94
2023-05-09T20:32:43.837Z,13.91
2023-05-09T20:35:10.609Z,13.88
2023-05-09T20:37:37.229Z,13.86
2023-05-09T20:40:07.250Z,13.90
2023-05-09T20:42:34.232Z,13.87
2023-05-09T20:45:00.881Z,13.84
2023-05-09T20:47:27.721Z,13.81
2023-05-09T20:49:55.821Z,13.83
2023-05-09T20:52:23.408Z,13.74
2023-05-09T20:54:49.952Z,13.77
2023-05-09T20:57:16.681Z,13.69
2023-05-09T20:59:44.147Z,13.63
2023-05-09T21:02:11.268Z,13.62
2023-05-09T21:04:37.931Z,13.55
2023-05-09T21:07:04.521Z,13.58
2023-05-09T21:09:31.245Z,13.59
2023-05-09T21:11:57.860Z,13.62
2023-05-09T21:14:24.385Z,13.58
2023-05-09T21:16:51.777Z,13.55
2023-05-09T21:19:18.408Z,13.55
2023-05-09T21:21:45.031Z,13.51
2023-05-09T21:24:11.706Z,13.55
2023-05-09T21:26:38.295Z,13.50
2023-05-09T21:29:05.331Z,13.47
2023-05-09T21:31:32.243Z,13.47
2023-05-09T21:34:10.358Z,13.43
2023-05-09T21:36:40.695Z,13.39
2023-05-09T21:39:09.590Z,13.33
2023-05-09T21:41:37.335Z,13.35
2023-05-09T21:44:04.294Z,13.38
2023-05-09T21:46:33.105Z,13.33
2023-05-09T21:49:00.974Z,13.20
2023-05-09T21:51:28.566Z,13.20
2023-05-09T21:53:55.574Z,13.28
2023-05-09T21:56:22.886Z,13.26
2023-05-09T21:58:49.466Z,13.27
2023-05-09T22:01:16.939Z,13.21
2023-05-09T22:03:43.834Z,13.19
2023-05-09T22:06:12.048Z,13.16
2023-05-09T22:08:38.876Z,13.15
2023-05-09T22:11:05.593Z,13.15
2023-05-09T22:13:32.221Z,13.09
2023-05-09T22:15:58.840Z,13.12
2023-05-09T22:18:25.497Z,13.04
2023-05-09T22:20:52.387Z,12.98
2023-05-09T22:23:19.008Z,12.95
2023-05-09T22:25:45.699Z,12.94
2023-05-09T22:28:12.373Z,12.95
2023-05-09T22:30:39.002Z,12.89
2023-05-09T22:33:05.765Z,12.81
2023-05-09T22:35:32.548Z,12.82
2023-05-09T22:37:59.147Z,12.83
2023-05-09T22:40:26.731Z,12.77
2023-05-09T22:42:53.489Z,12.83
2023-05-09T22:45:20.786Z,12.84
2023-05-09T22:47:47.470Z,12.75
2023-05-09T22:50:14.518Z,12.70
2023-05-09T22:52:46.718Z,12.69
2023-05-09T22:55:13.390Z,12.72
2023-05-09T22:57:41.315Z,12.72
2023-05-09T23:00:08.451Z,12.69
2023-05-09T23:02:35.143Z,12.70
2023-05-09T23:05:01.861Z,12.60
2023-05-09T23:07:28.554Z,12.56
2023-05-09T23:09:55.168Z,12.57
2023-05-09T23:12:21.755Z,12.55
2023-05-09T23:14:48.427Z,12.56
2023-05-09T23:17:15.080Z,12.51
2023-05-09T23:19:41.752Z,12.49
2023-05-09T23:22:08.398Z,12.49
2023-05-09T23:24:35.350Z,12.42
2023-05-09T23:27:02.718Z,12.35
2023-05-09T23:29:29.325Z,12.36
2023-05-09T23:31:56.464Z,12.30
2023-05-09T23:34:23.082Z,12.33
2023-05-09T23:36:49.684Z,12.34
2023-05-09T23:39:16.562Z,12.28
2023-05-09T23:41:43.167Z,12.22
2023-05-09T23:44:09.842Z,12.33
2023-05-09T23:46:36.432Z,12.25
2023-05-09T23:49:04.263Z,12.22
2023-05-09T23:51:30.891Z,12.23
2023-05-09T23:53:57.665Z,12.14
2023-05-09T23:56:25.211Z,12.17
2023-05-09T23:58:52.061Z,12.19
